Time;durP1;ratioP1;P1;durP2;ratioP2;P2;SDS_P1;SDS_P2;PMS_P1;PMS_P2;Temp;Humidity;BMP_temperature;BMP_pressure;BME280_temperature;BME280_humidity;BME280_pressure;Samples;Min_cycle;Max_cycle;Signal;HPM_P1;HPM_P2
2024/03/12 00:00:23;;;;;;;;;;;;;;;;;;4988031;28;19916;-58
2024/03/12 00:02:50;;;;;;;;;;;;;;;;;;4983901;28;19964;-59
2024/03/12 00:05:18;;;;;;;;;;;;;;;;;;4990405;28;19909;-56
2024/03/12 00:07:44;;;;;;;;;;;;;;;;;;4991929;28;19909;-58
2024/03/12 00:10:14;;;;;;;;;;;;;;;;;;4988217;28;20369;-58
2024/03/12 00:12:43;;;;;;;;;;;;;;;;;;4983433;28;19920;-55
2024/03/12 00:15:10;;;;;;;;;;;;;;;;;;4992293;28;20399;-57
2024/03/12 00:17:36;;;;;;;;;;;;;;;;;;4979737;28;19972;-56
2024/03/12 00:20:06;;;;;;;;;;;;;;;;;;4974359;28;19921;-58
2024/03/12 00:22:33;;;;;;;;;;;;;;;;;;4974789;28;19918;-57
2024/03/12 00:25:00;;;;;;;;;;;;;;;;;;4976050;28;19941;-57
2024/03/12 00:27:26;;;;;;;;;;;;;;;;;;4991261;28;19909;-57
2024/03/12 00:29:53;;;;;;;;;;;;;;;;;;4994297;28;19918;-58
2024/03/12 00:32:19;;;;;;;;;;;;;;;;;;4993569;28;19917;-58
2024/03/12 00:34:45;;;;;;;;;;;;;;;;;;4982808;28;19912;-58
2024/03/12 00:37:12;;;;;;;;;;;;;;;;;;4976609;28;19929;-58
2024/03/12 00:39:38;;;;;;;;;;;;;;;;;;4977738;28;20299;-57
2024/03/12 00:42:06;;;;;;;;;;;;;;;;;;4976970;28;19914;-57
2024/03/12 00:44:34;;;;;;;;;;;;;;;;;;4990251;28;19964;-58
2024/03/12 00:47:01;;;;;;;;;;;;;;;;;;4978908;28;19910;-58
2024/03/12 00:49:30;;;;;;;;;;;;;;;;;;4975720;28;20381;-57
2024/03/12 00:51:56;;;;;;;;;;;;;;;;;;4988470;28;20422;-56
2024/03/12 00:54:24;;;;;;;;;;;;;;;;;;4994937;28;20009;-58
2024/03/12 00:56:51;;;;;;;;;;;;;;;;;;4993333;28;19913;-57
2024/03/12 00:59:18;;;;;;;;;;;;;;;;;;4994615;28;20281;-58
2024/03/12 01:01:44;;;;;;;;;;;;;;;;;;4993049;28;19910;-58
2024/03/12 01:04:11;;;;;;;;;;;;;;;;;;4994241;28;20000;-57
2024/03/12 01:06:37;;;;;;;;;;;;;;;;;;4991456;28;19916;-58
2024/03/12 01:09:06;;;;;;;;;;;;;;;;;;4987538;28;19914;-58
2024/03/12 01:11:32;;;;;;;;;;;;;;;;;;4982806;28;19920;-58
2024/03/12 01:13:58;;;;;;;;;;;;;;;;;;4994525;28;19917;-57
2024/03/12 01:16:24;;;;;;;;;;;;;;;;;;4991150;28;20391;-56
2024/03/12 01:18:51;;;;;;;;;;;;;;;;;;4994204;28;19916;-57
2024/03/12 01:21:19;;;;;;;;;;;;;;;;;;4990629;28;20007;-57
2024/03/12 01:23:48;;;;;;;;;;;;;;;;;;4993787;28;20056;-57
2024/03/12 01:26:15;;;;;;;;;;;;;;;;;;4993157;28;20399;-56
2024/03/12 01:28:41;;;;;;;;;;;;;;;;;;4985538;28;19932;-58
2024/03/12 01:31:07;;;;;;;;;;;;;;;;;;4991069;28;19913;-57
2024/03/12 01:33:34;;;;;;;;;;;;;;;;;;4991469;28;19918;-56
2024/03/12 01:36:18;;;;;;;;;;;;;;;;;;4974644;28;19957;-57
2024/03/12 01:38:48;;;;;;;;;;;;;;;;;;4974672;28;19910;-57
2024/03/12 01:41:15;;;;;;;;;;;;;;;;;;4973524;28;20438;-57
2024/03/12 01:43:41;;;;;;;;;;;;;;;;;;4973333;28;20004;-55
2024/03/12 01:46:07;;;;;;;;;;;;;;;;;;4983066;28;20382;-55
2024/03/12 01:48:33;;;;;;;;;;;;;;;;;;4992652;28;20368;-57
2024/03/12 01:50:59;;;;;;;;;;;;;;;;;;4977201;28;20381;-58
2024/03/12 01:53:25;;;;;;;;;;;;;;;;;;4989184;28;19945;-57
2024/03/12 01:55:52;;;;;;;;;;;;;;;;;;4978219;28;19983;-57
2024/03/12 01:58:18;;;;;;;;;;;;;;;;;;4975508;28;19910;-58
2024/03/12 02:00:45;;;;;;;;;;;;;;;;;;4975619;28;20262;-57
2024/03/12 02:03:11;;;;;;;;;;;;;;;;;;4984408;28;19913;-57
2024/03/12 02:05:37;;;;;;;;;;;;;;;;;;4974100;28;19965;-58
2024/03/12 02:08:03;;;;;;;;;;;;;;;;;;4988534;28;19905;-55
2024/03/12 02:10:29;;;;;;;;;;;;;;;;;;4993461;28;19936;-58
2024/03/12 02:12:56;;;;;;;;;;;;;;;;;;4992284;28;19910;-59
2024/03/12 02:15:22;;;;;;;;;;;;;;;;;;4993284;28;20004;-55
2024/03/12 02:17:51;;;;;;;;;;;;;;;;;;4993378;28;19906;-58
2024/03/12 02:20:17;;;;;;;;;;;;;;;;;;4977078;28;19949;-57
2024/03/12 02:22:43;;;;;;;;;;;;;;;;;;4973792;28;20004;-54
2024/03/12 02:25:13;;;;;;;;;;;;;;;;;;4972601;28;19914;-56
2024/03/12 02:27:39;;;;;;;;;;;;;;;;;;4973902;28;20284;-55
2024/03/12 02:30:08;;;;;;;;;;;;;;;;;;4971925;28;20373;-57
2024/03/12 02:32:34;;;;;;;;;;;;;;;;;;4973055;28;19949;-58
2024/03/12 02:35:00;;;;;;;;;;;;;;;;;;4972952;28;19916;-57
2024/03/12 02:37:26;;;;;;;;;;;;;;;;;;4972728;28;19946;-56
2024/03/12 02:39:52;;;;;;;;;;;;;;;;;;4971856;28;19914;-57
2024/03/12 02:42:18;;;;;;;;;;;;;;;;;;4972953;28;19914;-56
2024/03/12 02:44:45;;;;;;;;;;;;;;;;;;4973356;28;20380;-56
2024/03/12 02:47:11;;;;;;;;;;;;;;;;;;4972713;28;20344;-53
2024/03/12 02:49:37;;;;;;;;;;;;;;;;;;4971452;28;20347;-57
2024/03/12 02:52:03;;;;;;;;;;;;;;;;;;4972686;28;20303;-58
2024/03/12 02:54:29;;;;;;;;;;;;;;;;;;4972806;28;19914;-58
2024/03/12 02:56:56;;;;;;;;;;;;;;;;;;4972599;28;19906;-58
2024/03/12 02:59:23;;;;;;;;;;;;;;;;;;4972546;28;19918;-58
2024/03/12 03:01:50;;;;;;;;;;;;;;;;;;4973719;28;19917;-56
2024/03/12 03:04:16;;;;;;;;;;;;;;;;;;4976381;28;20443;-56
2024/03/12 03:06:42;;;;;;;;;;;;;;;;;;4982051;28;19921;-56
2024/03/12 03:09:10;;;;;;;;;;;;;;;;;;4972522;28;20375;-58
2024/03/12 03:11:36;;;;;;;;;;;;;;;;;;4974642;28;19910;-58
2024/03/12 03:14:02;;;;;;;;;;;;;;;;;;4985085;28;19918;-57
2024/03/12 03:16:28;;;;;;;;;;;;;;;;;;4983294;28;19910;-58
2024/03/12 03:18:55;;;;;;;;;;;;;;;;;;4990107;28;20046;-56
2024/03/12 03:21:21;;;;;;;;;;;;;;;;;;4980728;28;19917;-57
2024/03/12 03:23:47;;;;;;;;;;;;;;;;;;4990385;28;19910;-56
2024/03/12 03:26:13;;;;;;;;;;;;;;;;;;4978547;28;19910;-58
2024/03/12 03:28:39;;;;;;;;;;;;;;;;;;4972325;28;19910;-57
2024/03/12 03:31:05;;;;;;;;;;;;;;;;;;4952589;28;557870;-58
2024/03/12 03:33:31;;;;;;;;;;;;;;;;;;4973114;28;19946;-55
2024/03/12 03:35:57;;;;;;;;;;;;;;;;;;4972922;28;20333;-54
2024/03/12 03:38:27;;;;;;;;;;;;;;;;;;4986534;28;19913;-58
2024/03/12 03:40:53;;;;;;;;;;;;;;;;;;4992305;28;19914;-58
2024/03/12 03:43:19;;;;;;;;;;;;;;;;;;4992414;28;19917;-58
2024/03/12 03:45:45;;;;;;;;;;;;;;;;;;4992159;28;20028;-58
2024/03/12 03:48:11;;;;;;;;;;;;;;;;;;4992378;28;19910;-57
2024/03/12 03:50:37;;;;;;;;;;;;;;;;;;4994106;28;19937;-55
2024/03/12 03:53:03;;;;;;;;;;;;;;;;;;4986272;28;19917;-57
2024/03/12 03:55:30;;;;;;;;;;;;;;;;;;4987377;28;19910;-55
2024/03/12 03:57:56;;;;;;;;;;;;;;;;;;4977689;28;20388;-56
2024/03/12 04:00:31;;;;;;;;;;;;;;;;;;4977560;28;19920;-54
2024/03/12 04:02:57;;;;;;;;;;;;;;;;;;4986803;28;19914;-57
2024/03/12 04:05:23;;;;;;;;;;;;;;;;;;4994218;28;19924;-58
2024/03/12 04:07:50;;;;;;;;;;;;;;;;;;4995840;28;20391;-56
2024/03/12 04:10:16;;;;;;;;;;;;;;;;;;4994478;28;19910;-58
2024/03/12 04:12:44;;;;;;;;;;;;;;;;;;4987444;28;19945;-57
2024/03/12 04:15:10;;;;;;;;;;;;;;;;;;4986372;28;19910;-56
2024/03/12 04:17:37;;;;;;;;;;;;;;;;;;4991898;28;19917;-57
2024/03/12 04:20:05;;;;;;;;;;;;;;;;;;4981968;28;19918;-57
2024/03/12 04:22:31;;;;;;;;;;;;;;;;;;4982156;28;19930;-58
2024/03/12 04:24:57;;;;;;;;;;;;;;;;;;4995529;28;20333;-57
2024/03/12 04:27:24;;;;;;;;;;;;;;;;;;4991492;28;19917;-57
2024/03/12 04:29:50;;;;;;;;;;;;;;;;;;4974570;28;19913;-57
2024/03/12 04:32:16;;;;;;;;;;;;;;;;;;4989303;28;19910;-57
2024/03/12 04:34:44;;;;;;;;;;;;;;;;;;4975935;28;19936;-55
2024/03/12 04:37:12;;;;;;;;;;;;;;;;;;4975720;28;19910;-56
2024/03/12 04:39:38;;;;;;;;;;;;;;;;;;4976011;28;20348;-57
2024/03/12 04:42:05;;;;;;;;;;;;;;;;;;4979155;28;20371;-58
2024/03/12 04:44:31;;;;;;;;;;;;;;;;;;4995400;28;20395;-57
2024/03/12 04:46:57;;;;;;;;;;;;;;;;;;4980777;28;19910;-57
2024/03/12 04:49:23;;;;;;;;;;;;;;;;;;4975569;28;20386;-55
2024/03/12 04:51:50;;;;;;;;;;;;;;;;;;4982594;28;19909;-57
2024/03/12 04:54:17;;;;;;;;;;;;;;;;;;4976567;28;20020;-54
2024/03/12 04:56:43;;;;;;;;;;;;;;;;;;4983075;28;19920;-53
2024/03/12 04:59:09;;;;;;;;;;;;;;;;;;4987679;28;19913;-58
2024/03/12 05:01:36;;;;;;;;;;;;;;;;;;4985103;28;19917;-54
2024/03/12 05:04:02;;;;;;;;;;;;;;;;;;4975400;28;19921;-57
2024/03/12 05:06:28;;;;;;;;;;;;;;;;;;4984232;28;19910;-58
2024/03/12 05:08:55;;;;;;;;;;;;;;;;;;4988532;28;19909;-57
2024/03/12 05:11:21;;;;;;;;;;;;;;;;;;4987094;28;19917;-57
2024/03/12 05:13:48;;;;;;;;;;;;;;;;;;4992834;28;20422;-58
2024/03/12 05:16:14;;;;;;;;;;;;;;;;;;4991497;28;20428;-55
2024/03/12 05:18:40;;;;;;;;;;;;;;;;;;4992655;28;19910;-58
2024/03/12 05:21:06;;;;;;;;;;;;;;;;;;4991477;28;19913;-58
2024/03/12 05:23:33;;;;;;;;;;;;;;;;;;4993320;28;19917;-59
2024/03/12 05:26:00;;;;;;;;;;;;;;;;;;4994232;28;19918;-57
2024/03/12 05:28:27;;;;;;;;;;;;;;;;;;4994350;28;19917;-58
2024/03/12 05:30:53;;;;;;;;;;;;;;;;;;4995248;28;19920;-59
2024/03/12 05:33:27;;;;;;;;;;;;;;;;;;4994721;28;19916;-57
2024/03/12 05:35:54;;;;;;;;;;;;;;;;;;4994884;28;19981;-59
2024/03/12 05:38:35;;;;;;;;;;;;;;;;;;4995108;28;19910;-59
2024/03/12 05:49:06;;;;;;;;;;;;;;;;;;4995151;28;19909;-59
2024/03/12 05:51:34;;;;;;;;;;;;;;;;;;4995042;28;20385;-59
2024/03/12 05:54:01;;;;;;;;;;;;;;;;;;4995114;28;19913;-59
2024/03/12 05:56:27;;;;;;;;;;;;;;;;;;4995015;28;20335;-59
2024/03/12 05:58:53;;;;;;;;;;;;;;;;;;4994920;28;20331;-59
2024/03/12 06:01:20;;;;;;;;;;;;;;;;;;4995023;28;19906;-59
2024/03/12 06:03:46;;;;;;;;;;;;;;;;;;4993276;28;19913;-59
2024/03/12 06:06:12;;;;;;;;;;;;;;;;;;4994845;28;19914;-59
2024/03/12 06:08:39;;;;;;;;;;;;;;;;;;4993277;28;19910;-59
2024/03/12 06:11:05;;;;;;;;;;;;;;;;;;4994551;28;20000;-58
2024/03/12 06:13:31;;;;;;;;;;;;;;;;;;4994348;28;19909;-59
2024/03/12 06:15:57;;;;;;;;;;;;;;;;;;4994364;28;19936;-59
2024/03/12 06:18:23;;;;;;;;;;;;;;;;;;4994921;28;19966;-59
2024/03/12 06:20:50;;;;;;;;;;;;;;;;;;4995333;28;19906;-58
2024/03/12 06:23:19;;;;;;;;;;;;;;;;;;4993327;28;19936;-59
2024/03/12 06:25:46;;;;;;;;;;;;;;;;;;4994397;28;19939;-57
2024/03/12 06:28:12;;;;;;;;;;;;;;;;;;4994068;28;19913;-58
2024/03/12 06:30:38;;;;;;;;;;;;;;;;;;4994035;28;19913;-57
2024/03/12 06:33:06;;;;;;;;;;;;;;;;;;4994220;28;19909;-58
2024/03/12 06:35:32;;;;;;;;;;;;;;;;;;4993936;28;20380;-57
2024/03/12 06:38:01;;;;;;;;;;;;;;;;;;4994109;28;19914;-57
2024/03/12 06:40:27;;;;;;;;;;;;;;;;;;4994879;28;19906;-55
2024/03/12 06:42:55;;;;;;;;;;;;;;;;;;4992316;28;20425;-57
2024/03/12 06:45:21;;;;;;;;;;;;;;;;;;4994312;28;20410;-58
2024/03/12 06:47:49;;;;;;;;;;;;;;;;;;4995004;28;19949;-58
2024/03/12 06:50:15;;;;;;;;;;;;;;;;;;4994576;28;20368;-58
2024/03/12 06:52:41;;;;;;;;;;;;;;;;;;4995059;28;19916;-58
2024/03/12 06:55:21;;;;;;;;;;;;;;;;;;4977847;28;19909;-58
2024/03/12 06:57:52;;;;;;;;;;;;;;;;;;4971017;28;19965;-57
2024/03/12 07:03:03;;;;;;;;;;;;;;;;;;4975612;28;19918;-56
2024/03/12 07:05:30;;;;;;;;;;;;;;;;;;4975551;28;19914;-58
2024/03/12 07:07:56;;;;;;;;;;;;;;;;;;4975837;28;20563;-57
2024/03/12 07:10:25;;;;;;;;;;;;;;;;;;4973877;28;19914;-55
2024/03/12 07:12:51;;;;;;;;;;;;;;;;;;4973898;28;19964;-56
2024/03/12 07:15:18;;;;;;;;;;;;;;;;;;4973923;28;19914;-57
2024/03/12 07:17:44;;;;;;;;;;;;;;;;;;4973914;28;20004;-56
2024/03/12 07:20:11;;;;;;;;;;;;;;;;;;4972957;28;20403;-58
2024/03/12 07:22:37;;;;;;;;;;;;;;;;;;4974551;28;19910;-59
2024/03/12 07:25:04;;;;;;;;;;;;;;;;;;4975052;28;20384;-59
2024/03/12 07:27:30;;;;;;;;;;;;;;;;;;4977481;28;19910;-59
2024/03/12 07:29:56;;;;;;;;;;;;;;;;;;4977179;28;20369;-56
2024/03/12 07:32:22;;;;;;;;;;;;;;;;;;4977691;28;19930;-56
2024/03/12 07:34:49;;;;;;;;;;;;;;;;;;4977265;28;20402;-59
2024/03/12 07:37:17;;;;;;;;;;;;;;;;;;4979063;28;19910;-55
2024/03/12 07:39:43;;;;;;;;;;;;;;;;;;4979843;28;19910;-57
2024/03/12 07:42:09;;;;;;;;;;;;;;;;;;4977825;28;20005;-56
2024/03/12 07:44:35;;;;;;;;;;;;;;;;;;4977694;28;19914;-48
2024/03/12 07:47:03;;;;;;;;;;;;;;;;;;4976677;28;20008;-51
2024/03/12 07:49:32;;;;;;;;;;;;;;;;;;4976824;28;19953;-50
2024/03/12 07:51:59;;;;;;;;;;;;;;;;;;4975658;28;19914;-50
2024/03/12 07:54:26;;;;;;;;;;;;;;;;;;4976779;28;20300;-51
2024/03/12 07:56:52;;;;;;;;;;;;;;;;;;4975458;28;20017;-49
2024/03/12 07:59:22;;;;;;;;;;;;;;;;;;4975338;28;19910;-50
2024/03/12 08:01:49;;;;;;;;;;;;;;;;;;4975639;28;20282;-56
2024/03/12 08:04:15;;;;;;;;;;;;;;;;;;4979912;28;20288;-59
2024/03/12 08:06:41;;;;;;;;;;;;;;;;;;4980365;28;19914;-59
2024/03/12 08:09:07;;;;;;;;;;;;;;;;;;4980030;28;19933;-59
2024/03/12 08:11:33;;;;;;;;;;;;;;;;;;4978302;28;19917;-57
2024/03/12 08:13:59;;;;;;;;;;;;;;;;;;4978788;28;19910;-59
2024/03/12 08:16:26;;;;;;;;;;;;;;;;;;4978532;28;20518;-59
2024/03/12 08:18:52;;;;;;;;;;;;;;;;;;4978647;28;19910;-59
2024/03/12 08:21:18;;;;;;;;;;;;;;;;;;4978927;28;20491;-59
2024/03/12 08:23:44;;;;;;;;;;;;;;;;;;4978372;28;19914;-59
2024/03/12 08:26:11;;;;;;;;;;;;;;;;;;4977161;28;20384;-56
2024/03/12 08:28:37;;;;;;;;;;;;;;;;;;4976816;28;19960;-58
2024/03/12 08:31:03;;;;;;;;;;;;;;;;;;4977262;28;19914;-56
2024/03/12 08:33:29;;;;;;;;;;;;;;;;;;4977152;28;20391;-57
2024/03/12 08:35:56;;;;;;;;;;;;;;;;;;4976162;28;19917;-59
2024/03/12 08:38:23;;;;;;;;;;;;;;;;;;4976649;28;19917;-60
2024/03/12 08:40:49;;;;;;;;;;;;;;;;;;4977729;28;19910;-57
2024/03/12 08:43:15;;;;;;;;;;;;;;;;;;4977293;28;20042;-59
2024/03/12 08:45:41;;;;;;;;;;;;;;;;;;4977759;28;19914;-60
2024/03/12 08:48:07;;;;;;;;;;;;;;;;;;4976907;28;19910;-58
2024/03/12 08:50:34;;;;;;;;;;;;;;;;;;4976388;28;19917;-58
2024/03/12 08:53:00;;;;;;;;;;;;;;;;;;4974994;28;19941;-58
2024/03/12 08:55:26;;;;;;;;;;;;;;;;;;4974535;28;20008;-59
2024/03/12 08:57:52;;;;;;;;;;;;;;;;;;4975879;28;19968;-59
2024/03/12 09:00:18;;;;;;;;;;;;;;;;;;4974785;28;20316;-59
2024/03/12 09:02:45;;;;;;;;;;;;;;;;;;4976348;28;20494;-58
2024/03/12 09:05:12;;;;;;;;;;;;;;;;;;4975760;28;19960;-59
2024/03/12 09:07:38;;;;;;;;;;;;;;;;;;4974608;28;20295;-59
2024/03/12 09:10:11;;;;;;;;;;;;;;;;;;4975553;28;19910;-59
2024/03/12 09:12:37;;;;;;;;;;;;;;;;;;4975540;28;20397;-58
2024/03/12 09:15:03;;;;;;;;;;;;;;;;;;4975616;28;19946;-59
2024/03/12 09:17:30;;;;;;;;;;;;;;;;;;4975486;28;19910;-59
2024/03/12 09:19:57;;;;;;;;;;;;;;;;;;4975734;28;19910;-59
2024/03/12 09:22:23;;;;;;;;;;;;;;;;;;4975470;28;19918;-59
2024/03/12 09:24:49;;;;;;;;;;;;;;;;;;4975787;28;20005;-59
2024/03/12 09:27:15;;;;;;;;;;;;;;;;;;4974085;28;20431;-58
2024/03/12 09:29:42;;;;;;;;;;;;;;;;;;4975405;28;19914;-58
2024/03/12 09:32:09;;;;;;;;;;;;;;;;;;4975926;28;19910;-59
2024/03/12 09:34:36;;;;;;;;;;;;;;;;;;4975725;28;19910;-59
2024/03/12 09:37:02;;;;;;;;;;;;;;;;;;4974174;28;20315;-59
2024/03/12 09:39:28;;;;;;;;;;;;;;;;;;4975486;28;19914;-59
2024/03/12 09:41:55;;;;;;;;;;;;;;;;;;4974274;28;19960;-58
2024/03/12 09:44:21;;;;;;;;;;;;;;;;;;4975365;28;19914;-59
2024/03/12 09:46:47;;;;;;;;;;;;;;;;;;4973786;28;19913;-59
2024/03/12 09:49:13;;;;;;;;;;;;;;;;;;4974864;28;20139;-57
2024/03/12 09:51:40;;;;;;;;;;;;;;;;;;4974976;28;19910;-57
2024/03/12 09:54:06;;;;;;;;;;;;;;;;;;4973880;28;19916;-59
2024/03/12 09:56:34;;;;;;;;;;;;;;;;;;4974688;28;20082;-58
2024/03/12 09:59:00;;;;;;;;;;;;;;;;;;4974693;28;19957;-59
2024/03/12 10:01:26;;;;;;;;;;;;;;;;;;4974869;28;19964;-59
2024/03/12 10:03:52;;;;;;;;;;;;;;;;;;4974849;28;19914;-57
2024/03/12 10:06:18;;;;;;;;;;;;;;;;;;4974604;28;19913;-58
2024/03/12 10:08:44;;;;;;;;;;;;;;;;;;4975035;28;20004;-58
2024/03/12 10:11:11;;;;;;;;;;;;;;;;;;4974976;28;19910;-58
2024/03/12 10:13:37;;;;;;;;;;;;;;;;;;4975009;28;20338;-58
2024/03/12 10:16:03;;;;;;;;;;;;;;;;;;4974724;28;19910;-59
2024/03/12 10:18:30;;;;;;;;;;;;;;;;;;4974847;28;20343;-58
2024/03/12 10:20:56;;;;;;;;;;;;;;;;;;4973420;28;19918;-58
2024/03/12 10:23:22;;;;;;;;;;;;;;;;;;4974537;28;19910;-57
2024/03/12 10:25:51;;;;;;;;;;;;;;;;;;4973296;28;19993;-58
2024/03/12 10:28:18;;;;;;;;;;;;;;;;;;4974896;28;20380;-58
2024/03/12 10:30:45;;;;;;;;;;;;;;;;;;4974586;28;19914;-59
2024/03/12 10:33:16;;;;;;;;;;;;;;;;;;4974729;28;20300;-57
2024/03/12 10:35:44;;;;;;;;;;;;;;;;;;4974344;28;20368;-59
2024/03/12 10:38:11;;;;;;;;;;;;;;;;;;4974262;28;19996;-57
2024/03/12 10:40:38;;;;;;;;;;;;;;;;;;4972836;28;19997;-59
2024/03/12 10:43:06;;;;;;;;;;;;;;;;;;4972807;28;20369;-59
2024/03/12 10:45:32;;;;;;;;;;;;;;;;;;4972731;28;19920;-59
2024/03/12 10:47:58;;;;;;;;;;;;;;;;;;4972755;28;19933;-58
2024/03/12 10:50:24;;;;;;;;;;;;;;;;;;4974094;28;19910;-57
2024/03/12 10:52:54;;;;;;;;;;;;;;;;;;4973967;28;19981;-59
2024/03/12 10:55:23;;;;;;;;;;;;;;;;;;4973635;28;19914;-59
2024/03/12 10:57:49;;;;;;;;;;;;;;;;;;4973840;28;19910;-58
2024/03/12 11:00:20;;;;;;;;;;;;;;;;;;4955686;28;19917;-58
2024/03/12 11:02:46;;;;;;;;;;;;;;;;;;4973641;28;19941;-56
2024/03/12 11:05:12;;;;;;;;;;;;;;;;;;4973663;28;19910;-57
2024/03/12 11:07:38;;;;;;;;;;;;;;;;;;4972255;28;19910;-57
2024/03/12 11:10:05;;;;;;;;;;;;;;;;;;4973569;28;20415;-59
2024/03/12 11:12:31;;;;;;;;;;;;;;;;;;4973631;28;19910;-59
2024/03/12 11:14:57;;;;;;;;;;;;;;;;;;4973663;28;19910;-57
2024/03/12 11:17:23;;;;;;;;;;;;;;;;;;4974421;28;19918;-58
2024/03/12 11:19:49;;;;;;;;;;;;;;;;;;4979147;28;19943;-59
2024/03/12 11:22:16;;;;;;;;;;;;;;;;;;4992706;28;19932;-59
2024/03/12 11:24:43;;;;;;;;;;;;;;;;;;4980738;28;19918;-60
2024/03/12 11:27:09;;;;;;;;;;;;;;;;;;4972378;28;20295;-60
2024/03/12 11:29:35;;;;;;;;;;;;;;;;;;4972263;28;19926;-60
2024/03/12 11:32:03;;;;;;;;;;;;;;;;;;4971433;28;20345;-60
2024/03/12 11:34:29;;;;;;;;;;;;;;;;;;4972311;28;19917;-59
2024/03/12 11:36:56;;;;;;;;;;;;;;;;;;4972249;28;19973;-59
2024/03/12 11:39:22;;;;;;;;;;;;;;;;;;4968190;28;20380;-58
2024/03/12 11:41:49;;;;;;;;;;;;;;;;;;4973366;28;20411;-60
2024/03/12 11:44:16;;;;;;;;;;;;;;;;;;4971506;28;20424;-60
2024/03/12 11:46:42;;;;;;;;;;;;;;;;;;4979955;28;20344;-58
2024/03/12 11:49:08;;;;;;;;;;;;;;;;;;4971382;28;19914;-59
2024/03/12 11:51:34;;;;;;;;;;;;;;;;;;4981277;28;19913;-59
2024/03/12 11:54:02;;;;;;;;;;;;;;;;;;4990780;28;19910;-58
2024/03/12 11:56:28;;;;;;;;;;;;;;;;;;4989619;28;20392;-59
2024/03/12 11:58:55;;;;;;;;;;;;;;;;;;4981472;28;19921;-59
2024/03/12 12:01:21;;;;;;;;;;;;;;;;;;4975435;28;19917;-59
2024/03/12 12:03:49;;;;;;;;;;;;;;;;;;4971563;28;19937;-59
2024/03/12 12:06:15;;;;;;;;;;;;;;;;;;4980730;28;20380;-59
2024/03/12 12:08:42;;;;;;;;;;;;;;;;;;4990811;28;19913;-59
2024/03/12 12:11:09;;;;;;;;;;;;;;;;;;4990180;28;19910;-60
2024/03/12 12:13:35;;;;;;;;;;;;;;;;;;4969155;28;19910;-59
2024/03/12 12:16:02;;;;;;;;;;;;;;;;;;4985942;28;19973;-60
2024/03/12 12:18:28;;;;;;;;;;;;;;;;;;4975990;28;20299;-58
2024/03/12 12:20:54;;;;;;;;;;;;;;;;;;4987738;28;19916;-59
2024/03/12 12:23:22;;;;;;;;;;;;;;;;;;4991730;28;20008;-57
2024/03/12 12:25:49;;;;;;;;;;;;;;;;;;4973859;28;19905;-58
2024/03/12 12:28:15;;;;;;;;;;;;;;;;;;4994367;28;19964;-59
2024/03/12 12:30:41;;;;;;;;;;;;;;;;;;4989870;28;19917;-60
2024/03/12 12:33:08;;;;;;;;;;;;;;;;;;4980822;28;19953;-56
2024/03/12 12:35:34;;;;;;;;;;;;;;;;;;4976105;28;19914;-59
2024/03/12 12:38:04;;;;;;;;;;;;;;;;;;4992196;28;19921;-59
2024/03/12 12:40:30;;;;;;;;;;;;;;;;;;4992665;28;19913;-58
2024/03/12 12:42:57;;;;;;;;;;;;;;;;;;4994161;28;20024;-56
2024/03/12 12:45:24;;;;;;;;;;;;;;;;;;4984927;28;20297;-59
2024/03/12 12:47:50;;;;;;;;;;;;;;;;;;4977288;28;19917;-59
2024/03/12 12:50:16;;;;;;;;;;;;;;;;;;4981744;28;19940;-57
2024/03/12 12:52:42;;;;;;;;;;;;;;;;;;4993622;28;19925;-59
2024/03/12 12:55:09;;;;;;;;;;;;;;;;;;4981598;28;20020;-59
2024/03/12 12:57:40;;;;;;;;;;;;;;;;;;4975684;28;19992;-59
2024/03/12 13:00:15;;;;;;;;;;;;;;;;;;4973154;28;19917;-60
2024/03/12 13:02:41;;;;;;;;;;;;;;;;;;4994187;28;20426;-59
2024/03/12 13:05:08;;;;;;;;;;;;;;;;;;4992179;28;19914;-60
2024/03/12 13:07:36;;;;;;;;;;;;;;;;;;4978776;28;19910;-59
2024/03/12 13:10:02;;;;;;;;;;;;;;;;;;4974047;28;20297;-59
2024/03/12 13:12:28;;;;;;;;;;;;;;;;;;4974032;28;19917;-60
2024/03/12 13:14:54;;;;;;;;;;;;;;;;;;4973961;28;20293;-59
2024/03/12 13:17:20;;;;;;;;;;;;;;;;;;4979162;28;20397;-58
2024/03/12 13:19:48;;;;;;;;;;;;;;;;;;4974696;28;19961;-60
2024/03/12 13:22:14;;;;;;;;;;;;;;;;;;4989196;28;19920;-60
2024/03/12 13:24:40;;;;;;;;;;;;;;;;;;4991156;28;19976;-60
2024/03/12 13:27:06;;;;;;;;;;;;;;;;;;4989441;28;20005;-60
2024/03/12 13:29:32;;;;;;;;;;;;;;;;;;4992781;28;19964;-60
2024/03/12 13:31:58;;;;;;;;;;;;;;;;;;4976288;28;19913;-59
2024/03/12 13:34:26;;;;;;;;;;;;;;;;;;4985050;28;20324;-60
2024/03/12 13:36:52;;;;;;;;;;;;;;;;;;4990488;28;20349;-60
2024/03/12 13:39:19;;;;;;;;;;;;;;;;;;4985730;28;19917;-60
2024/03/12 13:41:45;;;;;;;;;;;;;;;;;;4973594;28;19910;-57
2024/03/12 13:44:11;;;;;;;;;;;;;;;;;;4984439;28;19918;-60
2024/03/12 13:46:38;;;;;;;;;;;;;;;;;;4968239;28;19921;-59
2024/03/12 13:49:07;;;;;;;;;;;;;;;;;;4975474;28;20361;-60
2024/03/12 13:51:33;;;;;;;;;;;;;;;;;;4976094;28;19921;-60
2024/03/12 13:53:59;;;;;;;;;;;;;;;;;;4985205;28;19916;-60
2024/03/12 13:56:26;;;;;;;;;;;;;;;;;;4992813;28;19910;-60
2024/03/12 13:58:52;;;;;;;;;;;;;;;;;;4981147;28;19913;-60
2024/03/12 14:01:18;;;;;;;;;;;;;;;;;;4986205;28;19910;-59
2024/03/12 14:03:46;;;;;;;;;;;;;;;;;;4974912;28;19921;-57
2024/03/12 14:06:12;;;;;;;;;;;;;;;;;;4972934;28;19910;-58
2024/03/12 14:08:39;;;;;;;;;;;;;;;;;;4969285;28;20284;-58
2024/03/12 14:11:05;;;;;;;;;;;;;;;;;;4972853;28;20395;-55
2024/03/12 14:13:31;;;;;;;;;;;;;;;;;;4973276;28;19918;-57
2024/03/12 14:15:58;;;;;;;;;;;;;;;;;;4973378;28;19917;-60
2024/03/12 14:18:26;;;;;;;;;;;;;;;;;;4973548;28;19996;-59
2024/03/12 14:20:52;;;;;;;;;;;;;;;;;;4972243;28;19980;-60
2024/03/12 14:23:18;;;;;;;;;;;;;;;;;;4973586;28;19921;-61
2024/03/12 14:25:45;;;;;;;;;;;;;;;;;;4973342;28;19917;-60
2024/03/12 14:28:11;;;;;;;;;;;;;;;;;;4972288;28;20389;-59
2024/03/12 14:30:40;;;;;;;;;;;;;;;;;;4973686;28;19949;-61
2024/03/12 14:33:06;;;;;;;;;;;;;;;;;;4974344;28;19910;-60
2024/03/12 14:35:32;;;;;;;;;;;;;;;;;;4972880;28;19931;-58
2024/03/12 14:37:58;;;;;;;;;;;;;;;;;;4974427;28;19916;-58
2024/03/12 14:40:25;;;;;;;;;;;;;;;;;;4974429;28;19917;-59
2024/03/12 14:42:54;;;;;;;;;;;;;;;;;;4974307;28;20372;-58
2024/03/12 14:45:21;;;;;;;;;;;;;;;;;;4974702;28;19910;-58
2024/03/12 14:47:47;;;;;;;;;;;;;;;;;;4988258;28;20300;-58
2024/03/12 14:50:14;;;;;;;;;;;;;;;;;;4978818;28;19973;-56
2024/03/12 14:52:41;;;;;;;;;;;;;;;;;;4977772;28;19910;-58
2024/03/12 14:55:08;;;;;;;;;;;;;;;;;;4975953;28;19910;-58
2024/03/12 14:57:34;;;;;;;;;;;;;;;;;;4982408;28;19917;-58
2024/03/12 15:00:00;;;;;;;;;;;;;;;;;;4990288;28;20071;-59
2024/03/12 15:02:29;;;;;;;;;;;;;;;;;;4992579;28;20364;-59
2024/03/12 15:04:55;;;;;;;;;;;;;;;;;;4993790;28;19909;-58
2024/03/12 15:07:23;;;;;;;;;;;;;;;;;;4995141;28;19917;-58
2024/03/12 15:09:50;;;;;;;;;;;;;;;;;;4993125;28;19910;-58
2024/03/12 15:12:17;;;;;;;;;;;;;;;;;;4994618;28;19910;-59
2024/03/12 15:14:43;;;;;;;;;;;;;;;;;;4995261;28;20388;-58
2024/03/12 15:17:13;;;;;;;;;;;;;;;;;;4983255;28;19910;-61
2024/03/12 15:19:39;;;;;;;;;;;;;;;;;;4975297;28;19941;-58
2024/03/12 15:22:05;;;;;;;;;;;;;;;;;;4972022;28;20369;-56
2024/03/12 15:24:32;;;;;;;;;;;;;;;;;;4973203;28;19958;-53
2024/03/12 15:26:59;;;;;;;;;;;;;;;;;;4971974;28;19910;-55
2024/03/12 15:29:28;;;;;;;;;;;;;;;;;;4973072;28;19941;-54
2024/03/12 15:31:55;;;;;;;;;;;;;;;;;;4973303;28;19914;-56
2024/03/12 15:34:21;;;;;;;;;;;;;;;;;;4972155;28;20381;-52
2024/03/12 15:36:49;;;;;;;;;;;;;;;;;;4971824;28;19906;-55
2024/03/12 15:39:17;;;;;;;;;;;;;;;;;;4973169;28;19910;-50
2024/03/12 15:41:45;;;;;;;;;;;;;;;;;;4973171;28;20345;-51
2024/03/12 15:44:11;;;;;;;;;;;;;;;;;;4970478;28;19985;-51
2024/03/12 15:46:38;;;;;;;;;;;;;;;;;;4974836;28;19941;-49
2024/03/12 15:49:06;;;;;;;;;;;;;;;;;;4976879;28;20314;-53
2024/03/12 15:51:32;;;;;;;;;;;;;;;;;;4976913;28;19910;-50
2024/03/12 15:53:58;;;;;;;;;;;;;;;;;;4976952;28;20288;-55
2024/03/12 15:56:25;;;;;;;;;;;;;;;;;;4976784;28;19910;-53
2024/03/12 15:58:51;;;;;;;;;;;;;;;;;;4976657;28;19910;-53
2024/03/12 16:01:17;;;;;;;;;;;;;;;;;;4961312;28;19916;-53
2024/03/12 16:03:44;;;;;;;;;;;;;;;;;;4975140;28;19981;-49
2024/03/12 16:06:11;;;;;;;;;;;;;;;;;;4976446;28;20540;-52
2024/03/12 16:08:37;;;;;;;;;;;;;;;;;;4977497;28;19998;-59
2024/03/12 16:11:03;;;;;;;;;;;;;;;;;;4978532;28;19914;-59
2024/03/12 16:13:29;;;;;;;;;;;;;;;;;;4976568;28;19910;-59
2024/03/12 16:15:56;;;;;;;;;;;;;;;;;;4976388;28;20001;-59
2024/03/12 16:18:22;;;;;;;;;;;;;;;;;;4975497;28;19910;-59
2024/03/12 16:20:48;;;;;;;;;;;;;;;;;;4977826;28;19910;-60
2024/03/12 16:23:14;;;;;;;;;;;;;;;;;;4978253;28;19917;-58
2024/03/12 16:25:41;;;;;;;;;;;;;;;;;;4978342;28;19910;-58
2024/03/12 16:28:07;;;;;;;;;;;;;;;;;;4978669;28;19981;-59
2024/03/12 16:30:33;;;;;;;;;;;;;;;;;;4977080;28;19928;-59
2024/03/12 16:32:59;;;;;;;;;;;;;;;;;;4978126;28;19910;-59
2024/03/12 16:35:27;;;;;;;;;;;;;;;;;;4977195;28;20361;-59
2024/03/12 16:37:53;;;;;;;;;;;;;;;;;;4976964;28;19914;-59
2024/03/12 16:40:19;;;;;;;;;;;;;;;;;;4977707;28;19910;-60
2024/03/12 16:42:45;;;;;;;;;;;;;;;;;;4976499;28;19942;-59
2024/03/12 16:45:12;;;;;;;;;;;;;;;;;;4978055;28;19911;-59
2024/03/12 16:47:38;;;;;;;;;;;;;;;;;;4977705;28;19910;-60
2024/03/12 16:50:07;;;;;;;;;;;;;;;;;;4977667;28;19941;-60
2024/03/12 16:52:33;;;;;;;;;;;;;;;;;;4978146;28;19914;-60